sensor_id;sensor_type;location;lat;lon;timestamp;P1;durP1;ratioP1;P2;durP2;ratioP2
67181;SDS011;54114;53.524;49.396;2022-08-21T00:00:44;21.75;;;7.68;;
67181;SDS011;54114;53.524;49.396;2022-08-21T00:03:11;30.30;;;7.93;;
67181;SDS011;54114;53.524;49.396;2022-08-21T00:05:41;18.90;;;7.82;;
67181;SDS011;54114;53.524;49.396;2022-08-21T00:08:12;30.77;;;8.50;;
67181;SDS011;54114;53.524;49.396;2022-08-21T00:10:39;26.95;;;8.07;;
67181;SDS011;54114;53.524;49.396;2022-08-21T00:13:07;17.05;;;8.07;;
67181;SDS011;54114;53.524;49.396;2022-08-21T00:15:35;19.25;;;8.25;;
67181;SDS011;54114;53.524;49.396;2022-08-21T00:18:04;23.40;;;7.75;;
67181;SDS011;54114;53.524;49.396;2022-08-21T00:20:33;22.92;;;7.80;;
67181;SDS011;54114;53.524;49.396;2022-08-21T00:23:00;23.58;;;8.32;;
67181;SDS011;54114;53.524;49.396;2022-08-21T00:25:27;21.80;;;7.22;;
67181;SDS011;54114;53.524;49.396;2022-08-21T00:27:54;21.17;;;7.35;;
67181;SDS011;54114;53.524;49.396;2022-08-21T00:30:23;19.48;;;7.20;;
67181;SDS011;54114;53.524;49.396;2022-08-21T00:32:52;28.15;;;7.75;;
67181;SDS011;54114;53.524;49.396;2022-08-21T00:35:22;18.15;;;6.28;;
67181;SDS011;54114;53.524;49.396;2022-08-21T00:37:55;26.37;;;6.75;;
67181;SDS011;54114;53.524;49.396;2022-08-21T00:40:25;18.27;;;6.80;;
67181;SDS011;54114;53.524;49.396;2022-08-21T00:43:05;20.30;;;6.37;;
67181;SDS011;54114;53.524;49.396;2022-08-21T00:45:34;23.67;;;7.28;;
67181;SDS011;54114;53.524;49.396;2022-08-21T00:48:01;20.73;;;6.75;;
67181;SDS011;54114;53.524;49.396;2022-08-21T00:50:29;18.95;;;7.12;;
67181;SDS011;54114;53.524;49.396;2022-08-21T00:53:00;17.05;;;6.65;;
67181;SDS011;54114;53.524;49.396;2022-08-21T00:55:28;20.45;;;7.37;;
67181;SDS011;54114;53.524;49.396;2022-08-21T00:57:57;20.80;;;7.12;;
67181;SDS011;54114;53.524;49.396;2022-08-21T01:00:31;19.08;;;6.70;;
67181;SDS011;54114;53.524;49.396;2022-08-21T01:03:01;25.55;;;8.35;;
67181;SDS011;54114;53.524;49.396;2022-08-21T01:05:32;25.98;;;6.90;;
67181;SDS011;54114;53.524;49.396;2022-08-21T01:07:59;20.90;;;7.03;;
67181;SDS011;54114;53.524;49.396;2022-08-21T01:10:26;15.52;;;6.47;;
67181;SDS011;54114;53.524;49.396;2022-08-21T01:12:54;19.08;;;6.68;;
67181;SDS011;54114;53.524;49.396;2022-08-21T01:15:23;22.62;;;6.68;;
67181;SDS011;54114;53.524;49.396;2022-08-21T01:17:53;16.15;;;6.05;;
67181;SDS011;54114;53.524;49.396;2022-08-21T01:20:20;27.73;;;6.32;;
67181;SDS011;54114;53.524;49.396;2022-08-21T01:22:47;18.35;;;6.97;;
67181;SDS011;54114;53.524;49.396;2022-08-21T01:25:15;14.77;;;6.22;;
67181;SDS011;54114;53.524;49.396;2022-08-21T01:27:44;14.07;;;5.40;;
67181;SDS011;54114;53.524;49.396;2022-08-21T01:30:14;11.20;;;4.82;;
67181;SDS011;54114;53.524;49.396;2022-08-21T01:32:48;15.57;;;5.25;;
67181;SDS011;54114;53.524;49.396;2022-08-21T01:35:17;15.75;;;5.95;;
67181;SDS011;54114;53.524;49.396;2022-08-21T01:37:45;18.45;;;6.50;;
67181;SDS011;54114;53.524;49.396;2022-08-21T01:40:13;16.60;;;5.87;;
67181;SDS011;54114;53.524;49.396;2022-08-21T01:42:42;15.60;;;5.62;;
67181;SDS011;54114;53.524;49.396;2022-08-21T01:45:11;13.02;;;4.57;;
67181;SDS011;54114;53.524;49.396;2022-08-21T01:47:39;15.55;;;5.43;;
67181;SDS011;54114;53.524;49.396;2022-08-21T01:50:07;13.65;;;5.35;;
67181;SDS011;54114;53.524;49.396;2022-08-21T01:52:37;19.15;;;5.15;;
67181;SDS011;54114;53.524;49.396;2022-08-21T01:55:04;17.02;;;5.60;;
67181;SDS011;54114;53.524;49.396;2022-08-21T01:57:36;12.20;;;5.47;;
67181;SDS011;54114;53.524;49.396;2022-08-21T02:00:07;16.17;;;5.07;;
67181;SDS011;54114;53.524;49.396;2022-08-21T02:02:37;14.65;;;4.90;;
67181;SDS011;54114;53.524;49.396;2022-08-21T02:05:06;11.88;;;4.70;;
67181;SDS011;54114;53.524;49.396;2022-08-21T02:07:43;10.38;;;4.10;;
67181;SDS011;54114;53.524;49.396;2022-08-21T02:10:18;21.40;;;5.22;;
67181;SDS011;54114;53.524;49.396;2022-08-21T02:12:53;9.40;;;4.68;;
67181;SDS011;54114;53.524;49.396;2022-08-21T02:15:21;11.02;;;4.30;;
67181;SDS011;54114;53.524;49.396;2022-08-21T02:17:49;11.82;;;4.75;;
67181;SDS011;54114;53.524;49.396;2022-08-21T02:20:33;12.25;;;4.68;;
67181;SDS011;54114;53.524;49.396;2022-08-21T02:23:03;11.63;;;4.47;;
67181;SDS011;54114;53.524;49.396;2022-08-21T02:25:32;15.15;;;5.00;;
67181;SDS011;54114;53.524;49.396;2022-08-21T02:27:59;9.60;;;4.32;;
67181;SDS011;54114;53.524;49.396;2022-08-21T02:30:35;8.70;;;4.25;;
67181;SDS011;54114;53.524;49.396;2022-08-21T02:33:06;13.85;;;4.30;;
67181;SDS011;54114;53.524;49.396;2022-08-21T02:35:33;18.58;;;5.20;;
67181;SDS011;54114;53.524;49.396;2022-08-21T02:38:01;13.82;;;4.78;;
67181;SDS011;54114;53.524;49.396;2022-08-21T02:40:32;16.77;;;5.05;;
67181;SDS011;54114;53.524;49.396;2022-08-21T02:43:05;10.18;;;4.97;;
67181;SDS011;54114;53.524;49.396;2022-08-21T02:45:33;13.45;;;5.30;;
67181;SDS011;54114;53.524;49.396;2022-08-21T02:48:03;16.50;;;5.37;;
67181;SDS011;54114;53.524;49.396;2022-08-21T02:50:35;12.48;;;4.95;;
67181;SDS011;54114;53.524;49.396;2022-08-21T02:53:06;15.75;;;4.65;;
67181;SDS011;54114;53.524;49.396;2022-08-21T02:55:35;7.68;;;4.15;;
67181;SDS011;54114;53.524;49.396;2022-08-21T02:58:04;9.05;;;4.10;;
67181;SDS011;54114;53.524;49.396;2022-08-21T03:00:33;10.73;;;4.47;;
67181;SDS011;54114;53.524;49.396;2022-08-21T03:03:02;9.77;;;4.00;;
67181;SDS011;54114;53.524;49.396;2022-08-21T03:05:30;10.27;;;4.20;;
67181;SDS011;54114;53.524;49.396;2022-08-21T03:08:00;11.48;;;4.75;;
67181;SDS011;54114;53.524;49.396;2022-08-21T03:10:28;19.02;;;5.15;;
67181;SDS011;54114;53.524;49.396;2022-08-21T03:12:56;32.30;;;5.87;;
67181;SDS011;54114;53.524;49.396;2022-08-21T03:15:23;27.83;;;5.93;;
67181;SDS011;54114;53.524;49.396;2022-08-21T03:17:50;40.95;;;7.07;;
67181;SDS011;54114;53.524;49.396;2022-08-21T03:20:19;27.62;;;6.12;;
67181;SDS011;54114;53.524;49.396;2022-08-21T03:22:49;35.38;;;7.32;;
67181;SDS011;54114;53.524;49.396;2022-08-21T03:25:17;36.20;;;6.53;;
67181;SDS011;54114;53.524;49.396;2022-08-21T03:27:45;22.98;;;7.05;;
67181;SDS011;54114;53.524;49.396;2022-08-21T03:30:14;26.50;;;7.03;;
67181;SDS011;54114;53.524;49.396;2022-08-21T03:32:42;28.15;;;8.82;;
67181;SDS011;54114;53.524;49.396;2022-08-21T03:35:09;18.30;;;6.28;;
67181;SDS011;54114;53.524;49.396;2022-08-21T03:37:36;14.30;;;6.18;;
67181;SDS011;54114;53.524;49.396;2022-08-21T03:40:03;19.45;;;6.22;;
67181;SDS011;54114;53.524;49.396;2022-08-21T03:42:32;24.67;;;5.62;;
67181;SDS011;54114;53.524;49.396;2022-08-21T03:45:00;22.45;;;6.85;;
67181;SDS011;54114;53.524;49.396;2022-08-21T03:47:27;13.40;;;5.55;;
67181;SDS011;54114;53.524;49.396;2022-08-21T03:49:53;18.48;;;5.12;;
67181;SDS011;54114;53.524;49.396;2022-08-21T03:52:20;20.60;;;7.35;;
67181;SDS011;54114;53.524;49.396;2022-08-21T03:54:47;16.73;;;6.85;;
67181;SDS011;54114;53.524;49.396;2022-08-21T03:57:13;13.13;;;5.47;;
67181;SDS011;54114;53.524;49.396;2022-08-21T03:59:40;8.68;;;5.22;;
67181;SDS011;54114;53.524;49.396;2022-08-21T04:02:08;17.08;;;6.37;;
67181;SDS011;54114;53.524;49.396;2022-08-21T04:04:36;10.48;;;6.18;;
67181;SDS011;54114;53.524;49.396;2022-08-21T04:07:03;12.18;;;5.87;;
67181;SDS011;54114;53.524;49.396;2022-08-21T04:09:30;12.02;;;6.70;;
67181;SDS011;54114;53.524;49.396;2022-08-21T04:11:57;13.15;;;7.30;;
67181;SDS011;54114;53.524;49.396;2022-08-21T04:14:25;14.65;;;6.90;;
67181;SDS011;54114;53.524;49.396;2022-08-21T04:16:52;16.98;;;7.62;;
67181;SDS011;54114;53.524;49.396;2022-08-21T04:19:19;14.38;;;8.18;;
67181;SDS011;54114;53.524;49.396;2022-08-21T04:21:45;12.48;;;7.15;;
67181;SDS011;54114;53.524;49.396;2022-08-21T04:24:12;13.38;;;7.90;;
67181;SDS011;54114;53.524;49.396;2022-08-21T04:26:39;18.98;;;9.00;;
67181;SDS011;54114;53.524;49.396;2022-08-21T04:29:05;17.58;;;8.18;;
67181;SDS011;54114;53.524;49.396;2022-08-21T04:31:35;12.55;;;7.68;;
67181;SDS011;54114;53.524;49.396;2022-08-21T04:34:02;15.63;;;8.73;;
67181;SDS011;54114;53.524;49.396;2022-08-21T04:36:30;12.45;;;7.15;;
67181;SDS011;54114;53.524;49.396;2022-08-21T04:38:58;7.22;;;5.12;;
67181;SDS011;54114;53.524;49.396;2022-08-21T04:41:25;8.73;;;5.82;;
67181;SDS011;54114;53.524;49.396;2022-08-21T04:43:52;9.90;;;5.82;;
67181;SDS011;54114;53.524;49.396;2022-08-21T04:46:20;12.85;;;5.93;;
67181;SDS011;54114;53.524;49.396;2022-08-21T04:48:48;12.75;;;5.43;;
67181;SDS011;54114;53.524;49.396;2022-08-21T04:51:16;9.70;;;5.18;;
67181;SDS011;54114;53.524;49.396;2022-08-21T04:53:56;8.77;;;5.30;;
67181;SDS011;54114;53.524;49.396;2022-08-21T04:56:38;6.10;;;4.60;;
67181;SDS011;54114;53.524;49.396;2022-08-21T04:59:23;9.32;;;5.22;;
67181;SDS011;54114;53.524;49.396;2022-08-21T05:02:06;9.55;;;6.00;;
67181;SDS011;54114;53.524;49.396;2022-08-21T05:04:34;8.27;;;5.60;;
67181;SDS011;54114;53.524;49.396;2022-08-21T05:07:17;11.55;;;7.15;;
67181;SDS011;54114;53.524;49.396;2022-08-21T05:09:48;10.45;;;6.47;;
67181;SDS011;54114;53.524;49.396;2022-08-21T05:12:16;12.95;;;7.15;;
67181;SDS011;54114;53.524;49.396;2022-08-21T05:14:42;13.68;;;6.75;;
67181;SDS011;54114;53.524;49.396;2022-08-21T05:17:09;13.75;;;8.48;;
67181;SDS011;54114;53.524;49.396;2022-08-21T05:19:36;18.62;;;7.90;;
67181;SDS011;54114;53.524;49.396;2022-08-21T05:22:03;12.75;;;8.05;;
67181;SDS011;54114;53.524;49.396;2022-08-21T05:24:30;11.68;;;8.00;;
67181;SDS011;54114;53.524;49.396;2022-08-21T05:26:57;18.10;;;7.45;;
67181;SDS011;54114;53.524;49.396;2022-08-21T05:29:24;13.23;;;6.05;;
67181;SDS011;54114;53.524;49.396;2022-08-21T05:31:50;24.67;;;10.13;;
67181;SDS011;54114;53.524;49.396;2022-08-21T05:34:19;31.17;;;13.27;;
67181;SDS011;54114;53.524;49.396;2022-08-21T05:36:48;28.83;;;11.30;;
67181;SDS011;54114;53.524;49.396;2022-08-21T05:39:15;35.95;;;13.18;;
67181;SDS011;54114;53.524;49.396;2022-08-21T05:41:42;28.10;;;12.52;;
67181;SDS011;54114;53.524;49.396;2022-08-21T05:44:09;35.70;;;13.23;;
67181;SDS011;54114;53.524;49.396;2022-08-21T05:46:35;25.05;;;11.25;;
67181;SDS011;54114;53.524;49.396;2022-08-21T05:49:02;21.92;;;10.20;;
67181;SDS011;54114;53.524;49.396;2022-08-21T05:51:29;24.92;;;10.40;;
67181;SDS011;54114;53.524;49.396;2022-08-21T05:53:56;14.00;;;7.25;;
67181;SDS011;54114;53.524;49.396;2022-08-21T05:56:23;10.70;;;5.70;;
67181;SDS011;54114;53.524;49.396;2022-08-21T05:58:50;16.55;;;7.22;;
67181;SDS011;54114;53.524;49.396;2022-08-21T06:01:16;16.33;;;7.40;;
67181;SDS011;54114;53.524;49.396;2022-08-21T06:03:43;14.13;;;7.15;;
67181;SDS011;54114;53.524;49.396;2022-08-21T06:06:10;13.57;;;7.12;;
67181;SDS011;54114;53.524;49.396;2022-08-21T06:08:36;10.32;;;5.93;;
67181;SDS011;54114;53.524;49.396;2022-08-21T06:11:03;9.02;;;5.15;;
67181;SDS011;54114;53.524;49.396;2022-08-21T06:13:31;9.95;;;6.62;;
67181;SDS011;54114;53.524;49.396;2022-08-21T06:16:03;13.95;;;7.60;;
67181;SDS011;54114;53.524;49.396;2022-08-21T06:18:36;12.18;;;6.62;;
67181;SDS011;54114;53.524;49.396;2022-08-21T06:21:04;13.77;;;6.82;;
67181;SDS011;54114;53.524;49.396;2022-08-21T06:23:31;11.85;;;7.62;;
67181;SDS011;54114;53.524;49.396;2022-08-21T06:26:00;18.58;;;7.82;;
67181;SDS011;54114;53.524;49.396;2022-08-21T06:28:28;18.70;;;9.13;;
67181;SDS011;54114;53.524;49.396;2022-08-21T06:30:55;19.80;;;8.95;;
67181;SDS011;54114;53.524;49.396;2022-08-21T06:33:22;20.33;;;9.75;;
67181;SDS011;54114;53.524;49.396;2022-08-21T06:35:49;29.42;;;10.52;;
67181;SDS011;54114;53.524;49.396;2022-08-21T06:38:15;28.95;;;10.75;;
67181;SDS011;54114;53.524;49.396;2022-08-21T06:40:43;23.65;;;9.32;;
67181;SDS011;54114;53.524;49.396;2022-08-21T06:43:14;18.30;;;9.65;;
67181;SDS011;54114;53.524;49.396;2022-08-21T06:45:42;19.62;;;8.93;;
67181;SDS011;54114;53.524;49.396;2022-08-21T06:48:09;7.05;;;4.55;;
67181;SDS011;54114;53.524;49.396;2022-08-21T06:50:36;5.87;;;3.62;;
67181;SDS011;54114;53.524;49.396;2022-08-21T06:53:04;3.72;;;3.20;;
67181;SDS011;54114;53.524;49.396;2022-08-21T06:55:37;3.28;;;2.33;;
67181;SDS011;54114;53.524;49.396;2022-08-21T06:58:06;3.53;;;2.47;;
67181;SDS011;54114;53.524;49.396;2022-08-21T07:00:33;4.03;;;2.30;;
67181;SDS011;54114;53.524;49.396;2022-08-21T07:03:01;2.25;;;2.00;;
67181;SDS011;54114;53.524;49.396;2022-08-21T07:05:29;2.50;;;2.30;;
67181;SDS011;54114;53.524;49.396;2022-08-21T07:07:56;4.62;;;2.30;;
67181;SDS011;54114;53.524;49.396;2022-08-21T07:10:27;3.12;;;2.30;;
67181;SDS011;54114;53.524;49.396;2022-08-21T07:12:54;4.37;;;2.28;;
67181;SDS011;54114;53.524;49.396;2022-08-21T07:15:21;7.10;;;2.20;;
67181;SDS011;54114;53.524;49.396;2022-08-21T07:17:48;3.50;;;2.22;;
67181;SDS011;54114;53.524;49.396;2022-08-21T07:20:15;18.02;;;2.40;;
67181;SDS011;54114;53.524;49.396;2022-08-21T07:22:43;4.15;;;2.72;;
67181;SDS011;54114;53.524;49.396;2022-08-21T07:25:10;4.68;;;2.40;;
67181;SDS011;54114;53.524;49.396;2022-08-21T07:27:36;3.87;;;2.17;;
67181;SDS011;54114;53.524;49.396;2022-08-21T07:30:04;3.37;;;2.50;;
67181;SDS011;54114;53.524;49.396;2022-08-21T07:32:32;4.45;;;2.47;;
67181;SDS011;54114;53.524;49.396;2022-08-21T07:34:58;5.18;;;2.50;;
67181;SDS011;54114;53.524;49.396;2022-08-21T07:37:25;2.70;;;2.15;;
67181;SDS011;54114;53.524;49.396;2022-08-21T07:39:52;3.40;;;2.50;;
67181;SDS011;54114;53.524;49.396;2022-08-21T07:42:18;4.82;;;2.50;;
67181;SDS011;54114;53.524;49.396;2022-08-21T07:44:45;3.75;;;2.30;;
67181;SDS011;54114;53.524;49.396;2022-08-21T07:47:12;2.50;;;2.30;;
67181;SDS011;54114;53.524;49.396;2022-08-21T07:49:39;2.37;;;2.17;;
67181;SDS011;54114;53.524;49.396;2022-08-21T07:52:05;2.97;;;2.28;;
67181;SDS011;54114;53.524;49.396;2022-08-21T07:54:32;5.47;;;2.47;;
67181;SDS011;54114;53.524;49.396;2022-08-21T07:56:59;3.45;;;2.58;;
67181;SDS011;54114;53.524;49.396;2022-08-21T07:59:26;4.82;;;2.65;;
67181;SDS011;54114;53.524;49.396;2022-08-21T08:01:53;5.12;;;2.80;;
67181;SDS011;54114;53.524;49.396;2022-08-21T08:04:19;3.35;;;2.53;;
67181;SDS011;54114;53.524;49.396;2022-08-21T08:06:46;3.30;;;2.40;;
67181;SDS011;54114;53.524;49.396;2022-08-21T08:09:13;2.45;;;2.22;;
67181;SDS011;54114;53.524;49.396;2022-08-21T08:11:41;5.15;;;2.45;;
67181;SDS011;54114;53.524;49.396;2022-08-21T08:14:11;2.65;;;2.37;;
67181;SDS011;54114;53.524;49.396;2022-08-21T08:16:38;3.83;;;2.20;;
67181;SDS011;54114;53.524;49.396;2022-08-21T08:19:05;4.18;;;2.60;;
67181;SDS011;54114;53.524;49.396;2022-08-21T08:21:32;3.95;;;2.95;;
67181;SDS011;54114;53.524;49.396;2022-08-21T08:23:59;5.82;;;3.55;;
67181;SDS011;54114;53.524;49.396;2022-08-21T08:26:26;4.47;;;3.42;;
67181;SDS011;54114;53.524;49.396;2022-08-21T08:28:53;3.85;;;2.50;;
67181;SDS011;54114;53.524;49.396;2022-08-21T08:31:19;3.17;;;2.35;;
67181;SDS011;54114;53.524;49.396;2022-08-21T08:33:47;2.60;;;2.40;;
67181;SDS011;54114;53.524;49.396;2022-08-21T08:36:14;2.53;;;2.25;;
67181;SDS011;54114;53.524;49.396;2022-08-21T08:38:46;3.00;;;1.95;;
67181;SDS011;54114;53.524;49.396;2022-08-21T08:41:14;5.62;;;2.00;;
67181;SDS011;54114;53.524;49.396;2022-08-21T08:43:54;4.60;;;2.92;;
67181;SDS011;54114;53.524;49.396;2022-08-21T08:46:43;6.45;;;2.22;;
67181;SDS011;54114;53.524;49.396;2022-08-21T08:49:15;3.83;;;2.30;;
67181;SDS011;54114;53.524;49.396;2022-08-21T08:54:51;4.05;;;2.28;;
67181;SDS011;54114;53.524;49.396;2022-08-21T08:57:35;2.33;;;2.00;;
67181;SDS011;54114;53.524;49.396;2022-08-21T09:00:05;4.55;;;2.00;;
67181;SDS011;54114;53.524;49.396;2022-08-21T09:02:39;3.12;;;2.42;;
67181;SDS011;54114;53.524;49.396;2022-08-21T09:05:30;2.45;;;2.28;;
67181;SDS011;54114;53.524;49.396;2022-08-21T09:10:48;2.47;;;2.20;;
67181;SDS011;54114;53.524;49.396;2022-08-21T09:22:28;2.83;;;2.47;;
67181;SDS011;54114;53.524;49.396;2022-08-21T09:25:22;2.75;;;2.20;;
67181;SDS011;54114;53.524;49.396;2022-08-21T09:27:53;4.35;;;2.20;;
67181;SDS011;54114;53.524;49.396;2022-08-21T09:30:23;4.05;;;2.30;;
67181;SDS011;54114;53.524;49.396;2022-08-21T09:32:57;3.50;;;1.92;;
67181;SDS011;54114;53.524;49.396;2022-08-21T09:35:24;4.78;;;2.40;;
67181;SDS011;54114;53.524;49.396;2022-08-21T09:37:56;3.67;;;2.40;;
67181;SDS011;54114;53.524;49.396;2022-08-21T09:43:01;4.03;;;2.60;;
67181;SDS011;54114;53.524;49.396;2022-08-21T09:45:33;5.80;;;2.53;;
67181;SDS011;54114;53.524;49.396;2022-08-21T09:50:42;4.95;;;2.50;;
67181;SDS011;54114;53.524;49.396;2022-08-21T09:53:43;4.28;;;2.62;;
67181;SDS011;54114;53.524;49.396;2022-08-21T09:56:16;4.20;;;2.55;;
67181;SDS011;54114;53.524;49.396;2022-08-21T09:59:17;3.75;;;2.80;;
67181;SDS011;54114;53.524;49.396;2022-08-21T10:01:58;5.32;;;2.90;;
67181;SDS011;54114;53.524;49.396;2022-08-21T10:04:30;5.97;;;2.40;;
67181;SDS011;54114;53.524;49.396;2022-08-21T10:07:13;2.30;;;2.10;;
67181;SDS011;54114;53.524;49.396;2022-08-21T10:09:41;3.05;;;2.40;;
67181;SDS011;54114;53.524;49.396;2022-08-21T10:12:13;5.20;;;2.28;;
67181;SDS011;54114;53.524;49.396;2022-08-21T10:14:55;2.97;;;2.50;;
67181;SDS011;54114;53.524;49.396;2022-08-21T10:18:20;4.97;;;2.95;;
67181;SDS011;54114;53.524;49.396;2022-08-21T10:26:20;2.37;;;2.17;;
67181;SDS011;54114;53.524;49.396;2022-08-21T10:29:14;3.20;;;2.53;;
67181;SDS011;54114;53.524;49.396;2022-08-21T10:32:37;3.37;;;3.08;;
67181;SDS011;54114;53.524;49.396;2022-08-21T10:35:23;4.57;;;2.95;;
67181;SDS011;54114;53.524;49.396;2022-08-21T10:38:25;3.20;;;2.90;;
67181;SDS011;54114;53.524;49.396;2022-08-21T10:44:31;5.00;;;2.47;;
67181;SDS011;54114;53.524;49.396;2022-08-21T10:47:14;7.15;;;2.78;;
67181;SDS011;54114;53.524;49.396;2022-08-21T10:55:35;4.93;;;2.53;;
67181;SDS011;54114;53.524;49.396;2022-08-21T11:01:04;2.50;;;2.30;;
67181;SDS011;54114;53.524;49.396;2022-08-21T11:04:11;2.75;;;2.20;;
67181;SDS011;54114;53.524;49.396;2022-08-21T11:06:49;7.72;;;2.78;;
67181;SDS011;54114;53.524;49.396;2022-08-21T11:09:25;4.12;;;2.47;;
67181;SDS011;54114;53.524;49.396;2022-08-21T11:11:57;3.47;;;2.55;;
67181;SDS011;54114;53.524;49.396;2022-08-21T11:14:36;4.07;;;2.47;;
67181;SDS011;54114;53.524;49.396;2022-08-21T11:17:24;4.07;;;2.40;;
67181;SDS011;54114;53.524;49.396;2022-08-21T11:20:43;2.75;;;2.50;;
67181;SDS011;54114;53.524;49.396;2022-08-21T11:23:23;3.35;;;2.55;;
67181;SDS011;54114;53.524;49.396;2022-08-21T11:26:02;5.20;;;2.12;;
67181;SDS011;54114;53.524;49.396;2022-08-21T11:29:02;3.45;;;2.67;;
67181;SDS011;54114;53.524;49.396;2022-08-21T11:37:43;2.47;;;2.17;;
67181;SDS011;54114;53.524;49.396;2022-08-21T11:53:05;2.55;;;2.12;;
67181;SDS011;54114;53.524;49.396;2022-08-21T11:55:45;3.00;;;2.70;;
67181;SDS011;54114;53.524;49.396;2022-08-21T11:58:30;3.22;;;2.50;;
67181;SDS011;54114;53.524;49.396;2022-08-21T12:01:05;3.90;;;2.90;;
67181;SDS011;54114;53.524;49.396;2022-08-21T12:04:07;3.45;;;2.70;;
67181;SDS011;54114;53.524;49.396;2022-08-21T12:06:42;4.80;;;2.78;;
67181;SDS011;54114;53.524;49.396;2022-08-21T12:09:55;7.32;;;2.50;;
67181;SDS011;54114;53.524;49.396;2022-08-21T12:12:03;3.37;;;2.53;;
67181;SDS011;54114;53.524;49.396;2022-08-21T12:17:20;7.72;;;2.72;;
67181;SDS011;54114;53.524;49.396;2022-08-21T12:19:59;4.10;;;2.62;;
67181;SDS011;54114;53.524;49.396;2022-08-21T12:22:47;4.60;;;2.35;;
67181;SDS011;54114;53.524;49.396;2022-08-21T12:25:35;3.17;;;2.47;;
67181;SDS011;54114;53.524;49.396;2022-08-21T12:28:11;5.50;;;2.60;;
67181;SDS011;54114;53.524;49.396;2022-08-21T12:30:43;3.45;;;2.45;;
67181;SDS011;54114;53.524;49.396;2022-08-21T12:33:24;5.32;;;2.45;;
67181;SDS011;54114;53.524;49.396;2022-08-21T12:36:06;3.10;;;2.40;;
67181;SDS011;54114;53.524;49.396;2022-08-21T12:39:23;2.80;;;2.50;;
67181;SDS011;54114;53.524;49.396;2022-08-21T12:41:33;2.83;;;2.53;;
67181;SDS011;54114;53.524;49.396;2022-08-21T12:44:17;5.18;;;2.92;;
67181;SDS011;54114;53.524;49.396;2022-08-21T12:46:51;4.68;;;2.65;;
67181;SDS011;54114;53.524;49.396;2022-08-21T12:49:30;4.12;;;3.40;;
67181;SDS011;54114;53.524;49.396;2022-08-21T12:52:09;4.20;;;3.08;;
67181;SDS011;54114;53.524;49.396;2022-08-21T12:54:46;5.15;;;3.87;;
67181;SDS011;54114;53.524;49.396;2022-08-21T12:57:23;6.18;;;4.72;;
67181;SDS011;54114;53.524;49.396;2022-08-21T12:59:53;9.05;;;4.47;;
67181;SDS011;54114;53.524;49.396;2022-08-21T13:02:25;4.95;;;4.45;;
67181;SDS011;54114;53.524;49.396;2022-08-21T13:05:04;6.80;;;4.93;;
67181;SDS011;54114;53.524;49.396;2022-08-21T13:07:35;5.47;;;4.43;;
67181;SDS011;54114;53.524;49.396;2022-08-21T13:10:14;10.60;;;4.00;;
67181;SDS011;54114;53.524;49.396;2022-08-21T13:12:59;5.32;;;4.05;;
67181;SDS011;54114;53.524;49.396;2022-08-21T13:15:32;5.05;;;3.33;;
67181;SDS011;54114;53.524;49.396;2022-08-21T13:18:03;5.68;;;3.80;;
67181;SDS011;54114;53.524;49.396;2022-08-21T13:20:33;4.43;;;3.58;;
67181;SDS011;54114;53.524;49.396;2022-08-21T13:23:21;3.37;;;3.08;;
67181;SDS011;54114;53.524;49.396;2022-08-21T13:25:53;4.03;;;3.25;;
67181;SDS011;54114;53.524;49.396;2022-08-21T13:28:20;4.45;;;3.67;;
67181;SDS011;54114;53.524;49.396;2022-08-21T13:30:48;4.12;;;3.25;;
67181;SDS011;54114;53.524;49.396;2022-08-21T13:33:19;5.47;;;2.83;;
67181;SDS011;54114;53.524;49.396;2022-08-21T13:35:57;3.85;;;2.90;;
67181;SDS011;54114;53.524;49.396;2022-08-21T13:38:35;6.85;;;3.30;;
67181;SDS011;54114;53.524;49.396;2022-08-21T13:41:08;4.07;;;3.08;;
67181;SDS011;54114;53.524;49.396;2022-08-21T13:43:51;7.72;;;3.97;;
67181;SDS011;54114;53.524;49.396;2022-08-21T13:46:29;7.05;;;3.60;;
67181;SDS011;54114;53.524;49.396;2022-08-21T13:49:00;4.75;;;3.50;;
67181;SDS011;54114;53.524;49.396;2022-08-21T13:51:29;3.92;;;2.72;;
67181;SDS011;54114;53.524;49.396;2022-08-21T13:53:57;4.55;;;3.28;;
67181;SDS011;54114;53.524;49.396;2022-08-21T13:56:26;5.20;;;3.03;;
67181;SDS011;54114;53.524;49.396;2022-08-21T13:58:59;4.90;;;3.35;;
67181;SDS011;54114;53.524;49.396;2022-08-21T14:01:29;3.55;;;3.03;;
67181;SDS011;54114;53.524;49.396;2022-08-21T14:04:03;3.78;;;2.92;;
67181;SDS011;54114;53.524;49.396;2022-08-21T14:06:44;12.20;;;3.53;;
67181;SDS011;54114;53.524;49.396;2022-08-21T14:09:19;4.50;;;2.95;;
67181;SDS011;54114;53.524;49.396;2022-08-21T14:12:26;5.22;;;3.33;;
67181;SDS011;54114;53.524;49.396;2022-08-21T14:15:01;4.43;;;3.53;;
67181;SDS011;54114;53.524;49.396;2022-08-21T14:17:31;5.00;;;3.60;;
67181;SDS011;54114;53.524;49.396;2022-08-21T14:20:02;5.30;;;3.47;;
67181;SDS011;54114;53.524;49.396;2022-08-21T14:22:36;4.93;;;3.40;;
67181;SDS011;54114;53.524;49.396;2022-08-21T14:25:13;7.47;;;3.60;;
67181;SDS011;54114;53.524;49.396;2022-08-21T14:30:50;5.03;;;4.53;;
67181;SDS011;54114;53.524;49.396;2022-08-21T14:33:23;6.93;;;4.70;;
67181;SDS011;54114;53.524;49.396;2022-08-21T14:35:56;7.28;;;4.80;;
67181;SDS011;54114;53.524;49.396;2022-08-21T14:38:24;8.23;;;5.20;;
67181;SDS011;54114;53.524;49.396;2022-08-21T14:40:54;7.00;;;5.45;;
67181;SDS011;54114;53.524;49.396;2022-08-21T14:43:31;7.55;;;5.28;;
67181;SDS011;54114;53.524;49.396;2022-08-21T14:45:58;7.10;;;5.00;;
67181;SDS011;54114;53.524;49.396;2022-08-21T14:48:26;6.85;;;4.90;;
67181;SDS011;54114;53.524;49.396;2022-08-21T14:50:53;7.28;;;5.22;;
67181;SDS011;54114;53.524;49.396;2022-08-21T14:53:20;7.85;;;4.78;;
67181;SDS011;54114;53.524;49.396;2022-08-21T14:55:46;6.68;;;4.60;;
67181;SDS011;54114;53.524;49.396;2022-08-21T14:58:32;5.25;;;4.50;;
67181;SDS011;54114;53.524;49.396;2022-08-21T15:01:08;5.82;;;4.70;;
67181;SDS011;54114;53.524;49.396;2022-08-21T15:03:38;7.28;;;4.95;;
67181;SDS011;54114;53.524;49.396;2022-08-21T15:06:05;5.70;;;4.70;;
67181;SDS011;54114;53.524;49.396;2022-08-21T15:08:33;9.82;;;4.87;;
67181;SDS011;54114;53.524;49.396;2022-08-21T15:11:01;7.97;;;4.93;;
67181;SDS011;54114;53.524;49.396;2022-08-21T15:13:29;12.82;;;6.35;;
67181;SDS011;54114;53.524;49.396;2022-08-21T15:15:56;8.43;;;6.78;;
67181;SDS011;54114;53.524;49.396;2022-08-21T15:18:24;9.20;;;6.07;;
67181;SDS011;54114;53.524;49.396;2022-08-21T15:20:52;10.38;;;6.15;;
67181;SDS011;54114;53.524;49.396;2022-08-21T15:23:19;10.43;;;6.65;;
67181;SDS011;54114;53.524;49.396;2022-08-21T15:25:46;12.02;;;6.32;;
67181;SDS011;54114;53.524;49.396;2022-08-21T15:28:15;10.20;;;6.32;;
67181;SDS011;54114;53.524;49.396;2022-08-21T15:30:43;9.55;;;6.05;;
67181;SDS011;54114;53.524;49.396;2022-08-21T15:33:13;9.65;;;6.22;;
67181;SDS011;54114;53.524;49.396;2022-08-21T15:35:40;13.95;;;6.55;;
67181;SDS011;54114;53.524;49.396;2022-08-21T15:38:07;10.82;;;6.18;;
67181;SDS011;54114;53.524;49.396;2022-08-21T15:40:34;14.30;;;5.82;;
67181;SDS011;54114;53.524;49.396;2022-08-21T15:43:02;14.55;;;6.60;;
67181;SDS011;54114;53.524;49.396;2022-08-21T15:45:31;10.63;;;5.85;;
67181;SDS011;54114;53.524;49.396;2022-08-21T15:47:59;11.82;;;6.95;;
67181;SDS011;54114;53.524;49.396;2022-08-21T15:50:26;17.00;;;8.32;;
67181;SDS011;54114;53.524;49.396;2022-08-21T15:52:55;12.48;;;7.32;;
67181;SDS011;54114;53.524;49.396;2022-08-21T15:55:22;14.05;;;8.68;;
67181;SDS011;54114;53.524;49.396;2022-08-21T15:57:49;18.60;;;8.80;;